sensor_id;sensor_type;location;lat;lon;timestamp;pressure;altitude;pressure_sealevel;temperature;humidity
76108;BME280;64834;52.516;10.528;2023-06-22T00:02:13;101266.44;;;19.10;76.00
76108;BME280;64834;52.516;10.528;2023-06-22T00:04:38;101262.28;;;19.18;75.21
76108;BME280;64834;52.516;10.528;2023-06-22T00:07:04;101267.63;;;19.20;75.27
76108;BME280;64834;52.516;10.528;2023-06-22T00:09:30;101263.97;;;19.16;75.50
76108;BME280;64834;52.516;10.528;2023-06-22T00:11:55;101269.03;;;19.08;75.70
76108;BME280;64834;52.516;10.528;2023-06-22T00:14:21;101267.41;;;19.12;75.83
76108;BME280;64834;52.516;10.528;2023-06-22T00:16:46;101273.56;;;19.11;75.49
76108;BME280;64834;52.516;10.528;2023-06-22T00:19:13;101268.50;;;18.92;76.32
76108;BME280;64834;52.516;10.528;2023-06-22T00:21:39;101260.47;;;18.89;76.75
76108;BME280;64834;52.516;10.528;2023-06-22T00:24:04;101261.09;;;18.80;77.17
76108;BME280;64834;52.516;10.528;2023-06-22T00:26:31;101263.69;;;18.78;77.05
76108;BME280;64834;52.516;10.528;2023-06-22T00:28:56;101260.63;;;18.66;77.82
76108;BME280;64834;52.516;10.528;2023-06-22T00:31:21;101260.72;;;18.68;78.02
76108;BME280;64834;52.516;10.528;2023-06-22T00:33:47;101260.81;;;18.71;77.46
76108;BME280;64834;52.516;10.528;2023-06-22T00:36:12;101272.53;;;18.79;77.36
76108;BME280;64834;52.516;10.528;2023-06-22T00:38:41;101271.41;;;18.71;77.81
76108;BME280;64834;52.516;10.528;2023-06-22T00:41:07;101273.81;;;18.65;77.63
76108;BME280;64834;52.516;10.528;2023-06-22T00:43:32;101274.69;;;18.64;78.12
76108;BME280;64834;52.516;10.528;2023-06-22T00:45:57;101272.88;;;18.63;78.25
76108;BME280;64834;52.516;10.528;2023-06-22T00:48:23;101273.47;;;18.54;78.40
76108;BME280;64834;52.516;10.528;2023-06-22T00:50:49;101269.69;;;18.46;78.74
76108;BME280;64834;52.516;10.528;2023-06-22T00:53:16;101278.88;;;18.30;79.53
76108;BME280;64834;52.516;10.528;2023-06-22T00:55:44;101274.81;;;18.41;78.48
76108;BME280;64834;52.516;10.528;2023-06-22T00:58:12;101281.84;;;18.39;78.79
76108;BME280;64834;52.516;10.528;2023-06-22T01:00:39;101278.28;;;18.39;79.33
76108;BME280;64834;52.516;10.528;2023-06-22T01:03:04;101276.97;;;18.26;79.47
76108;BME280;64834;52.516;10.528;2023-06-22T01:05:34;101282.78;;;18.16;79.82
76108;BME280;64834;52.516;10.528;2023-06-22T01:14:10;101280.97;;;18.13;80.16
76108;BME280;64834;52.516;10.528;2023-06-22T01:16:41;101275.88;;;18.19;79.90
76108;BME280;64834;52.516;10.528;2023-06-22T01:22:10;101263.47;;;18.18;79.32
76108;BME280;64834;52.516;10.528;2023-06-22T01:24:48;101258.31;;;17.97;80.53
76108;BME280;64834;52.516;10.528;2023-06-22T01:27:32;101252.63;;;17.85;81.07
76108;BME280;64834;52.516;10.528;2023-06-22T01:29:58;101248.59;;;17.96;80.95
76108;BME280;64834;52.516;10.528;2023-06-22T01:32:34;101258.28;;;17.96;80.52
76108;BME280;64834;52.516;10.528;2023-06-22T01:35:03;101257.22;;;17.91;81.06
76108;BME280;64834;52.516;10.528;2023-06-22T01:37:30;101258.06;;;17.90;80.74
76108;BME280;64834;52.516;10.528;2023-06-22T01:40:00;101246.84;;;17.97;80.82
76108;BME280;64834;52.516;10.528;2023-06-22T01:42:27;101245.03;;;17.96;81.01
76108;BME280;64834;52.516;10.528;2023-06-22T01:44:53;101250.03;;;17.87;81.70
76108;BME280;64834;52.516;10.528;2023-06-22T01:47:20;101239.66;;;17.69;82.31
76108;BME280;64834;52.516;10.528;2023-06-22T01:49:46;101231.28;;;17.57;82.62
76108;BME280;64834;52.516;10.528;2023-06-22T01:52:11;101224.06;;;17.52;83.23
76108;BME280;64834;52.516;10.528;2023-06-22T01:54:38;101225.69;;;17.47;83.10
76108;BME280;64834;52.516;10.528;2023-06-22T01:57:03;101222.00;;;17.44;83.71
76108;BME280;64834;52.516;10.528;2023-06-22T01:59:33;101231.56;;;17.40;83.82
76108;BME280;64834;52.516;10.528;2023-06-22T02:02:10;101245.88;;;17.45;83.57
76108;BME280;64834;52.516;10.528;2023-06-22T02:04:53;101251.56;;;17.56;83.12
76108;BME280;64834;52.516;10.528;2023-06-22T02:07:23;101239.03;;;17.52;83.60
76108;BME280;64834;52.516;10.528;2023-06-22T02:09:51;101240.84;;;17.53;83.16
76108;BME280;64834;52.516;10.528;2023-06-22T02:12:21;101245.75;;;17.42;83.67
76108;BME280;64834;52.516;10.528;2023-06-22T02:14:47;101239.03;;;17.28;83.81
76108;BME280;64834;52.516;10.528;2023-06-22T02:17:13;101255.66;;;17.24;84.29
76108;BME280;64834;52.516;10.528;2023-06-22T02:19:42;101248.44;;;17.20;84.72
76108;BME280;64834;52.516;10.528;2023-06-22T02:22:07;101244.22;;;17.25;84.14
76108;BME280;64834;52.516;10.528;2023-06-22T02:24:33;101243.34;;;17.24;83.79
76108;BME280;64834;52.516;10.528;2023-06-22T02:26:59;101240.19;;;17.11;85.00
76108;BME280;64834;52.516;10.528;2023-06-22T02:29:24;101239.16;;;17.07;84.80
76108;BME280;64834;52.516;10.528;2023-06-22T02:31:50;101246.47;;;17.14;84.16
76108;BME280;64834;52.516;10.528;2023-06-22T02:34:15;101240.47;;;17.18;83.67
76108;BME280;64834;52.516;10.528;2023-06-22T02:36:45;101239.13;;;17.30;83.35
76108;BME280;64834;52.516;10.528;2023-06-22T02:39:19;101242.28;;;17.43;82.93
76108;BME280;64834;52.516;10.528;2023-06-22T02:41:45;101244.34;;;17.28;83.58
76108;BME280;64834;52.516;10.528;2023-06-22T02:44:11;101247.44;;;17.16;84.17
76108;BME280;64834;52.516;10.528;2023-06-22T02:46:36;101247.25;;;17.12;83.90
76108;BME280;64834;52.516;10.528;2023-06-22T02:49:01;101241.03;;;17.10;84.10
76108;BME280;64834;52.516;10.528;2023-06-22T02:51:28;101244.38;;;17.06;84.62
76108;BME280;64834;52.516;10.528;2023-06-22T02:53:53;101248.72;;;17.04;84.13
76108;BME280;64834;52.516;10.528;2023-06-22T02:56:22;101240.72;;;17.02;84.26
76108;BME280;64834;52.516;10.528;2023-06-22T02:58:50;101242.34;;;16.98;84.27
76108;BME280;64834;52.516;10.528;2023-06-22T03:01:15;101257.09;;;17.16;82.80
76108;BME280;64834;52.516;10.528;2023-06-22T03:03:41;101257.22;;;17.19;83.32
76108;BME280;64834;52.516;10.528;2023-06-22T03:06:06;101259.59;;;17.11;83.19
76108;BME280;64834;52.516;10.528;2023-06-22T03:08:31;101271.25;;;17.16;83.10
76108;BME280;64834;52.516;10.528;2023-06-22T03:10:56;101270.84;;;17.06;83.70
76108;BME280;64834;52.516;10.528;2023-06-22T03:13:22;101279.06;;;17.13;83.05
76108;BME280;64834;52.516;10.528;2023-06-22T03:15:48;101283.69;;;16.96;83.91
76108;BME280;64834;52.516;10.528;2023-06-22T03:18:13;101287.97;;;16.93;83.94
76108;BME280;64834;52.516;10.528;2023-06-22T03:20:38;101292.00;;;17.06;83.86
76108;BME280;64834;52.516;10.528;2023-06-22T03:23:04;101295.63;;;17.09;83.49
76108;BME280;64834;52.516;10.528;2023-06-22T03:25:30;101294.72;;;17.09;83.32
76108;BME280;64834;52.516;10.528;2023-06-22T03:27:55;101294.69;;;17.07;83.34
76108;BME280;64834;52.516;10.528;2023-06-22T03:30:20;101302.94;;;16.92;84.41
76108;BME280;64834;52.516;10.528;2023-06-22T03:32:46;101295.03;;;16.94;84.29
76108;BME280;64834;52.516;10.528;2023-06-22T03:35:12;101303.66;;;17.11;83.63
76108;BME280;64834;52.516;10.528;2023-06-22T03:37:39;101293.97;;;17.11;83.26
76108;BME280;64834;52.516;10.528;2023-06-22T03:40:05;101296.19;;;17.01;83.89
76108;BME280;64834;52.516;10.528;2023-06-22T03:42:30;101303.16;;;16.98;83.91
76108;BME280;64834;52.516;10.528;2023-06-22T03:44:55;101307.56;;;16.98;83.77
76108;BME280;64834;52.516;10.528;2023-06-22T03:47:22;101312.34;;;17.08;83.63
76108;BME280;64834;52.516;10.528;2023-06-22T03:49:47;101313.38;;;17.12;83.37
76108;BME280;64834;52.516;10.528;2023-06-22T03:52:12;101309.19;;;17.17;82.65
76108;BME280;64834;52.516;10.528;2023-06-22T03:54:38;101320.56;;;17.16;82.68
76108;BME280;64834;52.516;10.528;2023-06-22T03:57:03;101311.59;;;17.11;82.87
76108;BME280;64834;52.516;10.528;2023-06-22T03:59:28;101296.44;;;17.07;83.03
76108;BME280;64834;52.516;10.528;2023-06-22T04:01:54;101294.97;;;17.15;82.59
76108;BME280;64834;52.516;10.528;2023-06-22T04:04:20;101305.78;;;17.43;81.25
76108;BME280;64834;52.516;10.528;2023-06-22T04:06:45;101306.94;;;17.74;79.66
76108;BME280;64834;52.516;10.528;2023-06-22T04:09:10;101297.28;;;17.76;79.26
76108;BME280;64834;52.516;10.528;2023-06-22T04:11:36;101296.22;;;17.95;78.81
76108;BME280;64834;52.516;10.528;2023-06-22T04:14:01;101306.75;;;18.19;77.15
76108;BME280;64834;52.516;10.528;2023-06-22T04:16:27;101307.47;;;18.40;76.47
76108;BME280;64834;52.516;10.528;2023-06-22T04:18:52;101303.19;;;18.69;75.11
76108;BME280;64834;52.516;10.528;2023-06-22T04:21:17;101297.44;;;19.11;73.46
76108;BME280;64834;52.516;10.528;2023-06-22T04:23:45;101293.75;;;19.36;71.66
76108;BME280;64834;52.516;10.528;2023-06-22T04:26:11;101296.63;;;19.44;71.74
76108;BME280;64834;52.516;10.528;2023-06-22T04:28:36;101295.19;;;19.55;70.88
76108;BME280;64834;52.516;10.528;2023-06-22T04:31:02;101285.34;;;19.81;70.09
76108;BME280;64834;52.516;10.528;2023-06-22T04:33:28;101288.09;;;19.85;69.92
76108;BME280;64834;52.516;10.528;2023-06-22T04:35:55;101281.03;;;19.86;69.81
76108;BME280;64834;52.516;10.528;2023-06-22T04:38:23;101273.03;;;19.84;69.72
76108;BME280;64834;52.516;10.528;2023-06-22T04:40:48;101277.06;;;19.70;70.06
76108;BME280;64834;52.516;10.528;2023-06-22T04:43:14;101278.34;;;19.84;70.07
76108;BME280;64834;52.516;10.528;2023-06-22T04:45:39;101284.69;;;19.58;70.88
76108;BME280;64834;52.516;10.528;2023-06-22T04:48:05;101279.31;;;19.26;72.84
76108;BME280;64834;52.516;10.528;2023-06-22T04:50:30;101284.41;;;19.19;73.51
76108;BME280;64834;52.516;10.528;2023-06-22T04:52:56;101280.41;;;19.04;74.18
76108;BME280;64834;52.516;10.528;2023-06-22T04:55:21;101282.84;;;19.27;73.84
76108;BME280;64834;52.516;10.528;2023-06-22T04:57:47;101284.34;;;19.77;71.33
76108;BME280;64834;52.516;10.528;2023-06-22T05:00:18;101287.16;;;19.83;71.06
76108;BME280;64834;52.516;10.528;2023-06-22T05:02:45;101288.75;;;19.77;71.57
76108;BME280;64834;52.516;10.528;2023-06-22T05:05:12;101286.22;;;19.81;70.76
76108;BME280;64834;52.516;10.528;2023-06-22T05:07:44;101278.31;;;19.83;70.77
76108;BME280;64834;52.516;10.528;2023-06-22T05:10:11;101285.00;;;19.69;71.52
76108;BME280;64834;52.516;10.528;2023-06-22T05:12:38;101292.78;;;19.62;72.01
76108;BME280;64834;52.516;10.528;2023-06-22T05:15:04;101278.63;;;19.62;72.55
76108;BME280;64834;52.516;10.528;2023-06-22T05:17:30;101269.22;;;19.45;72.48
76108;BME280;64834;52.516;10.528;2023-06-22T05:19:55;101268.56;;;19.22;73.84
76108;BME280;64834;52.516;10.528;2023-06-22T05:22:21;101268.44;;;19.17;74.67
76108;BME280;64834;52.516;10.528;2023-06-22T05:24:46;101274.91;;;19.27;74.80
76108;BME280;64834;52.516;10.528;2023-06-22T05:27:12;101284.13;;;19.39;74.05
76108;BME280;64834;52.516;10.528;2023-06-22T05:29:38;101276.47;;;19.50;74.84
76108;BME280;64834;52.516;10.528;2023-06-22T05:32:04;101276.84;;;19.62;73.78
76108;BME280;64834;52.516;10.528;2023-06-22T05:34:29;101279.84;;;19.75;73.40
76108;BME280;64834;52.516;10.528;2023-06-22T05:36:54;101276.50;;;19.82;73.75
76108;BME280;64834;52.516;10.528;2023-06-22T05:39:20;101283.00;;;19.93;73.01
76108;BME280;64834;52.516;10.528;2023-06-22T05:41:45;101278.09;;;20.08;72.53
76108;BME280;64834;52.516;10.528;2023-06-22T05:44:11;101271.72;;;20.02;73.17
76108;BME280;64834;52.516;10.528;2023-06-22T05:46:36;101273.72;;;20.10;73.27
76108;BME280;64834;52.516;10.528;2023-06-22T05:49:02;101264.28;;;20.23;72.25
76108;BME280;64834;52.516;10.528;2023-06-22T05:51:27;101260.13;;;20.33;71.67
76108;BME280;64834;52.516;10.528;2023-06-22T05:53:53;101264.19;;;20.53;71.88
76108;BME280;64834;52.516;10.528;2023-06-22T05:56:18;101266.38;;;20.69;71.24
76108;BME280;64834;52.516;10.528;2023-06-22T05:58:44;101267.53;;;20.81;71.39
76108;BME280;64834;52.516;10.528;2023-06-22T06:01:09;101268.03;;;21.05;70.64
76108;BME280;64834;52.516;10.528;2023-06-22T06:03:34;101257.63;;;21.14;71.28
76108;BME280;64834;52.516;10.528;2023-06-22T06:06:06;101262.78;;;21.47;70.08
76108;BME280;64834;52.516;10.528;2023-06-22T06:08:31;101258.81;;;21.71;69.25
76108;BME280;64834;52.516;10.528;2023-06-22T06:10:56;101260.31;;;22.05;68.25
76108;BME280;64834;52.516;10.528;2023-06-22T06:13:22;101257.91;;;22.17;67.95
76108;BME280;64834;52.516;10.528;2023-06-22T06:15:48;101253.66;;;22.30;66.88
76108;BME280;64834;52.516;10.528;2023-06-22T06:18:13;101261.06;;;22.48;65.28
76108;BME280;64834;52.516;10.528;2023-06-22T06:20:38;101248.94;;;22.68;65.19
76108;BME280;64834;52.516;10.528;2023-06-22T06:23:04;101252.09;;;22.43;64.76
76108;BME280;64834;52.516;10.528;2023-06-22T06:25:29;101259.06;;;22.33;65.33
76108;BME280;64834;52.516;10.528;2023-06-22T06:27:54;101262.00;;;22.50;65.00
76108;BME280;64834;52.516;10.528;2023-06-22T06:30:20;101261.25;;;22.57;65.33
76108;BME280;64834;52.516;10.528;2023-06-22T06:32:46;101255.47;;;22.87;63.83
76108;BME280;64834;52.516;10.528;2023-06-22T06:35:13;101250.47;;;23.10;63.54
76108;BME280;64834;52.516;10.528;2023-06-22T06:37:41;101252.59;;;23.37;62.28
76108;BME280;64834;52.516;10.528;2023-06-22T06:40:08;101247.47;;;23.57;61.75
76108;BME280;64834;52.516;10.528;2023-06-22T06:42:36;101247.28;;;24.23;60.30
76108;BME280;64834;52.516;10.528;2023-06-22T06:45:04;101241.06;;;24.25;60.30
76108;BME280;64834;52.516;10.528;2023-06-22T06:47:29;101244.50;;;24.13;60.01
76108;BME280;64834;52.516;10.528;2023-06-22T06:49:55;101240.81;;;23.95;60.78
76108;BME280;64834;52.516;10.528;2023-06-22T06:52:20;101241.72;;;24.01;60.92
76108;BME280;64834;52.516;10.528;2023-06-22T06:54:46;101242.19;;;23.60;61.27
76108;BME280;64834;52.516;10.528;2023-06-22T06:57:11;101232.97;;;23.33;62.47
76108;BME280;64834;52.516;10.528;2023-06-22T06:59:38;101234.78;;;23.37;62.58
76108;BME280;64834;52.516;10.528;2023-06-22T07:02:04;101224.78;;;23.99;61.55
76108;BME280;64834;52.516;10.528;2023-06-22T07:04:29;101224.72;;;23.89;60.41
76108;BME280;64834;52.516;10.528;2023-06-22T07:06:55;101217.91;;;24.28;60.22
76108;BME280;64834;52.516;10.528;2023-06-22T07:09:20;101222.47;;;24.38;59.53
76108;BME280;64834;52.516;10.528;2023-06-22T07:11:47;101224.34;;;24.48;59.38
76108;BME280;64834;52.516;10.528;2023-06-22T07:14:12;101226.38;;;24.89;57.82
76108;BME280;64834;52.516;10.528;2023-06-22T07:16:38;101227.38;;;25.05;57.07
76108;BME280;64834;52.516;10.528;2023-06-22T07:19:03;101236.38;;;25.15;56.96
76108;BME280;64834;52.516;10.528;2023-06-22T07:21:28;101233.47;;;24.83;57.48
76108;BME280;64834;52.516;10.528;2023-06-22T07:23:54;101234.66;;;25.37;55.58
76108;BME280;64834;52.516;10.528;2023-06-22T07:26:20;101232.94;;;25.60;55.23
76108;BME280;64834;52.516;10.528;2023-06-22T07:28:45;101228.34;;;25.25;55.90
76108;BME280;64834;52.516;10.528;2023-06-22T07:31:10;101231.84;;;25.05;56.58
76108;BME280;64834;52.516;10.528;2023-06-22T07:33:36;101222.06;;;25.11;56.44
76108;BME280;64834;52.516;10.528;2023-06-22T07:36:01;101218.56;;;25.27;55.99
76108;BME280;64834;52.516;10.528;2023-06-22T07:38:28;101211.44;;;25.36;55.67
76108;BME280;64834;52.516;10.528;2023-06-22T07:40:54;101218.41;;;25.03;55.83
76108;BME280;64834;52.516;10.528;2023-06-22T07:43:19;101212.31;;;25.39;55.35
76108;BME280;64834;52.516;10.528;2023-06-22T07:45:48;101219.56;;;25.65;55.26
76108;BME280;64834;52.516;10.528;2023-06-22T07:48:17;101221.44;;;25.99;54.80
76108;BME280;64834;52.516;10.528;2023-06-22T07:50:42;101213.38;;;26.05;55.30
76108;BME280;64834;52.516;10.528;2023-06-22T07:53:08;101223.19;;;25.76;54.36
76108;BME280;64834;52.516;10.528;2023-06-22T07:55:33;101223.94;;;25.35;56.30
76108;BME280;64834;52.516;10.528;2023-06-22T07:57:58;101223.97;;;25.43;56.80
76108;BME280;64834;52.516;10.528;2023-06-22T08:00:24;101220.53;;;26.05;55.43
76108;BME280;64834;52.516;10.528;2023-06-22T08:02:49;101206.25;;;26.47;53.56
76108;BME280;64834;52.516;10.528;2023-06-22T08:05:15;101209.81;;;26.55;52.83
76108;BME280;64834;52.516;10.528;2023-06-22T08:07:41;101207.03;;;26.91;52.75
76108;BME280;64834;52.516;10.528;2023-06-22T08:10:10;101210.63;;;26.77;52.40
76108;BME280;64834;52.516;10.528;2023-06-22T08:12:35;101203.53;;;26.59;52.80
76108;BME280;64834;52.516;10.528;2023-06-22T08:15:01;101208.78;;;27.11;51.88
76108;BME280;64834;52.516;10.528;2023-06-22T08:17:26;101207.94;;;26.82;52.44
76108;BME280;64834;52.516;10.528;2023-06-22T08:19:51;101207.94;;;26.82;52.62
76108;BME280;64834;52.516;10.528;2023-06-22T08:22:17;101208.91;;;26.61;53.26
76108;BME280;64834;52.516;10.528;2023-06-22T08:24:43;101207.03;;;26.91;53.17
76108;BME280;64834;52.516;10.528;2023-06-22T08:27:09;101206.03;;;27.24;51.41
76108;BME280;64834;52.516;10.528;2023-06-22T08:29:36;101198.13;;;26.73;52.63
76108;BME280;64834;52.516;10.528;2023-06-22T08:32:02;101200.00;;;26.41;53.22
76108;BME280;64834;52.516;10.528;2023-06-22T08:34:27;101198.16;;;26.52;53.70
76108;BME280;64834;52.516;10.528;2023-06-22T08:36:53;101204.38;;;26.86;52.53
76108;BME280;64834;52.516;10.528;2023-06-22T08:39:19;101207.00;;;26.94;52.49
76108;BME280;64834;52.516;10.528;2023-06-22T08:41:45;101209.78;;;26.57;52.75
76108;BME280;64834;52.516;10.528;2023-06-22T08:44:11;101204.47;;;26.40;53.80
76108;BME280;64834;52.516;10.528;2023-06-22T08:46:36;101200.81;;;26.78;53.09
76108;BME280;64834;52.516;10.528;2023-06-22T08:49:04;101202.44;;;27.26;51.33
76108;BME280;64834;52.516;10.528;2023-06-22T08:51:29;101202.38;;;27.38;50.60
76108;BME280;64834;52.516;10.528;2023-06-22T08:53:55;101207.75;;;27.34;50.69
76108;BME280;64834;52.516;10.528;2023-06-22T08:56:20;101199.66;;;27.45;50.20
76108;BME280;64834;52.516;10.528;2023-06-22T08:58:45;101201.63;;;26.95;51.15
76108;BME280;64834;52.516;10.528;2023-06-22T09:01:11;101200.69;;;27.14;51.51
76108;BME280;64834;52.516;10.528;2023-06-22T09:03:36;101207.06;;;26.86;52.33
76108;BME280;64834;52.516;10.528;2023-06-22T09:06:02;101197.19;;;26.93;52.52
76108;BME280;64834;52.516;10.528;2023-06-22T09:08:28;101193.53;;;27.13;51.25
76108;BME280;64834;52.516;10.528;2023-06-22T09:10:53;101198.00;;;27.18;50.23
76108;BME280;64834;52.516;10.528;2023-06-22T09:13:18;101201.66;;;26.97;51.58
76108;BME280;64834;52.516;10.528;2023-06-22T09:15:44;101196.31;;;26.81;51.89
76108;BME280;64834;52.516;10.528;2023-06-22T09:18:13;101199.06;;;26.66;52.51
76108;BME280;64834;52.516;10.528;2023-06-22T09:20:39;101192.81;;;26.47;52.75
76108;BME280;64834;52.516;10.528;2023-06-22T09:23:05;101175.81;;;26.21;53.09
76108;BME280;64834;52.516;10.528;2023-06-22T09:25:30;101169.56;;;26.06;53.99
76108;BME280;64834;52.516;10.528;2023-06-22T09:27:56;101165.06;;;26.21;54.44
76108;BME280;64834;52.516;10.528;2023-06-22T09:30:21;101175.81;;;26.30;53.98
76108;BME280;64834;52.516;10.528;2023-06-22T09:32:46;101172.25;;;26.23;53.98
76108;BME280;64834;52.516;10.528;2023-06-22T09:35:12;101161.50;;;26.20;53.84
76108;BME280;64834;52.516;10.528;2023-06-22T09:37:39;101166.88;;;26.23;54.65
76108;BME280;64834;52.516;10.528;2023-06-22T09:40:05;101156.16;;;26.23;54.41
76108;BME280;64834;52.516;10.528;2023-06-22T09:42:35;101155.25;;;26.26;54.35
76108;BME280;64834;52.516;10.528;2023-06-22T09:45:00;101149.91;;;26.12;55.09
76108;BME280;64834;52.516;10.528;2023-06-22T09:47:26;101156.13;;;26.60;54.02
76108;BME280;64834;52.516;10.528;2023-06-22T09:49:52;101145.34;;;26.63;54.09
76108;BME280;64834;52.516;10.528;2023-06-22T09:52:17;101152.50;;;26.67;53.19
76108;BME280;64834;52.516;10.528;2023-06-22T09:54:42;101154.22;;;26.83;53.12
76108;BME280;64834;52.516;10.528;2023-06-22T09:57:08;101139.88;;;26.97;52.41
76108;BME280;64834;52.516;10.528;2023-06-22T09:59:33;101137.78;;;27.51;50.66
76108;BME280;64834;52.516;10.528;2023-06-22T10:01:59;101138.19;;;28.17;49.51
76108;BME280;64834;52.516;10.528;2023-06-22T10:04:24;101142.06;;;27.81;50.07
76108;BME280;64834;52.516;10.528;2023-06-22T10:06:50;101140.66;;;28.38;49.21
76108;BME280;64834;52.516;10.528;2023-06-22T10:09:16;101132.81;;;28.12;48.65
76108;BME280;64834;52.516;10.528;2023-06-22T10:11:41;101131.84;;;28.19;48.25
76108;BME280;64834;52.516;10.528;2023-06-22T10:14:06;101124.91;;;27.94;49.06
76108;BME280;64834;52.516;10.528;2023-06-22T10:16:32;101124.03;;;27.93;49.92
76108;BME280;64834;52.516;10.528;2023-06-22T10:18:57;101126.53;;;28.13;48.68
76108;BME280;64834;52.516;10.528;2023-06-22T10:21:23;101127.41;;;28.14;48.28
76108;BME280;64834;52.516;10.528;2023-06-22T10:23:48;101123.13;;;27.98;48.93
76108;BME280;64834;52.516;10.528;2023-06-22T10:26:13;101125.88;;;27.88;49.25
76108;BME280;64834;52.516;10.528;2023-06-22T10:28:39;101128.69;;;27.73;49.41
76108;BME280;64834;52.516;10.528;2023-06-22T10:31:04;101128.94;;;27.35;50.38
76108;BME280;64834;52.516;10.528;2023-06-22T10:33:29;101136.16;;;27.28;50.33
76108;BME280;64834;52.516;10.528;2023-06-22T10:35:55;101132.53;;;27.32;51.23
76108;BME280;64834;52.516;10.528;2023-06-22T10:38:20;101123.53;;;27.36;50.55
76108;BME280;64834;52.516;10.528;2023-06-22T10:40:46;101121.69;;;27.48;50.53
76108;BME280;64834;52.516;10.528;2023-06-22T10:43:11;101119.09;;;27.32;51.83
76108;BME280;64834;52.516;10.528;2023-06-22T10:45:36;101126.03;;;27.64;51.77
76108;BME280;64834;52.516;10.528;2023-06-22T10:48:02;101116.03;;;27.86;51.10
76108;BME280;64834;52.516;10.528;2023-06-22T10:50:27;101112.25;;;28.07;49.93
76108;BME280;64834;52.516;10.528;2023-06-22T10:52:53;101114.84;;;28.14;49.10
76108;BME280;64834;52.516;10.528;2023-06-22T10:55:19;101112.03;;;28.30;49.38
76108;BME280;64834;52.516;10.528;2023-06-22T10:57:44;101111.72;;;28.60;48.39
76108;BME280;64834;52.516;10.528;2023-06-22T11:00:12;101102.78;;;28.54;48.00
76108;BME280;64834;52.516;10.528;2023-06-22T11:02:38;101094.97;;;28.31;48.52
76108;BME280;64834;52.516;10.528;2023-06-22T11:05:04;101101.31;;;28.23;49.25
76108;BME280;64834;52.516;10.528;2023-06-22T11:07:30;101095.94;;;28.23;49.21
76108;BME280;64834;52.516;10.528;2023-06-22T11:09:55;101088.53;;;28.45;49.57
76108;BME280;64834;52.516;10.528;2023-06-22T11:12:21;101088.22;;;28.73;48.34
76108;BME280;64834;52.516;10.528;2023-06-22T11:14:46;101084.88;;;28.51;48.22
76108;BME280;64834;52.516;10.528;2023-06-22T11:17:12;101082.66;;;28.85;47.91
76108;BME280;64834;52.516;10.528;2023-06-22T11:19:44;101077.16;;;28.96;47.77
76108;BME280;64834;52.516;10.528;2023-06-22T11:22:09;101080.19;;;28.68;47.51
76108;BME280;64834;52.516;10.528;2023-06-22T11:24:34;101072.94;;;28.72;48.31
76108;BME280;64834;52.516;10.528;2023-06-22T11:27:00;101066.88;;;28.56;47.54
76108;BME280;64834;52.516;10.528;2023-06-22T11:29:25;101060.19;;;28.09;49.05
76108;BME280;64834;52.516;10.528;2023-06-22T11:31:50;101063.59;;;28.31;49.65
76108;BME280;64834;52.516;10.528;2023-06-22T11:34:16;101061.09;;;28.08;48.94
76108;BME280;64834;52.516;10.528;2023-06-22T11:36:41;101045.94;;;28.01;48.35
76108;BME280;64834;52.516;10.528;2023-06-22T11:39:08;101056.09;;;27.73;49.33
76108;BME280;64834;52.516;10.528;2023-06-22T11:41:34;101056.03;;;27.78;49.47
76108;BME280;64834;52.516;10.528;2023-06-22T11:44:00;101053.47;;;27.59;50.13
76108;BME280;64834;52.516;10.528;2023-06-22T11:46:25;101050.94;;;27.41;50.78
76108;BME280;64834;52.516;10.528;2023-06-22T11:48:50;101051.91;;;27.32;51.10
76108;BME280;64834;52.516;10.528;2023-06-22T11:51:16;101041.97;;;27.43;51.33
76108;BME280;64834;52.516;10.528;2023-06-22T11:53:41;101045.59;;;27.38;50.96
76108;BME280;64834;52.516;10.528;2023-06-22T11:56:06;101043.97;;;27.12;51.98
76108;BME280;64834;52.516;10.528;2023-06-22T11:58:32;101041.34;;;27.03;52.26
76108;BME280;64834;52.516;10.528;2023-06-22T12:00:57;101037.75;;;27.06;52.70
76108;BME280;64834;52.516;10.528;2023-06-22T12:03:22;101038.78;;;26.79;53.71
76108;BME280;64834;52.516;10.528;2023-06-22T12:05:50;101045.81;;;27.01;53.56
76108;BME280;64834;52.516;10.528;2023-06-22T12:08:16;101032.97;;;27.48;53.52
76108;BME280;64834;52.516;10.528;2023-06-22T12:10:41;101024.22;;;27.20;53.96
76108;BME280;64834;52.516;10.528;2023-06-22T12:13:07;101015.75;;;27.73;53.43
76108;BME280;64834;52.516;10.528;2023-06-22T12:15:32;101013.31;;;28.33;51.95
76108;BME280;64834;52.516;10.528;2023-06-22T12:17:57;101015.03;;;28.39;49.83
76108;BME280;64834;52.516;10.528;2023-06-22T12:20:23;101015.06;;;28.34;49.42
76108;BME280;64834;52.516;10.528;2023-06-22T12:22:48;101015.13;;;28.30;49.64
76108;BME280;64834;52.516;10.528;2023-06-22T12:25:16;101004.56;;;28.82;49.30
76108;BME280;64834;52.516;10.528;2023-06-22T12:27:41;100994.41;;;29.02;48.48
76108;BME280;64834;52.516;10.528;2023-06-22T12:30:08;100995.50;;;28.88;49.54
76108;BME280;64834;52.516;10.528;2023-06-22T12:32:33;100996.47;;;28.85;48.70
76108;BME280;64834;52.516;10.528;2023-06-22T12:34:58;100983.72;;;28.96;48.30
76108;BME280;64834;52.516;10.528;2023-06-22T12:37:24;100982.69;;;29.07;47.99
76108;BME280;64834;52.516;10.528;2023-06-22T12:39:49;100977.03;;;29.23;48.64
76108;BME280;64834;52.516;10.528;2023-06-22T12:42:16;100980.19;;;28.94;48.44
76108;BME280;64834;52.516;10.528;2023-06-22T12:44:41;100968.63;;;29.42;47.96